Time;durP1;ratioP1;P1;durP2;ratioP2;P2;SDS_P1;SDS_P2;PMS_P1;PMS_P2;Temp;Humidity;BMP_temperature;BMP_pressure;BME280_temperature;BME280_humidity;BME280_pressure;Samples;Min_cycle;Max_cycle;Signal;HPM_P1;HPM_P2
2023/05/12 00:02:18;;;;;;;6.13;1.77;;;;;;;;;;5065961;28;20529;-76
2023/05/12 00:04:50;;;;;;;7.72;2.00;;;;;;;;;;5066349;28;20048;-75
2023/05/12 00:07:28;;;;;;;6.18;1.80;;;;;;;;;;5065438;28;20612;-76
2023/05/12 00:10:02;;;;;;;4.43;2.03;;;;;;;;;;5065779;28;20071;-74
2023/05/12 00:12:35;;;;;;;13.05;2.42;;;;;;;;;;5080920;28;20048;-77
2023/05/12 00:15:06;;;;;;;4.80;2.00;;;;;;;;;;5065695;28;20049;-75
2023/05/12 00:17:37;;;;;;;7.30;1.83;;;;;;;;;;5065539;28;20066;-74
2023/05/12 00:20:10;;;;;;;6.25;2.00;;;;;;;;;;5065519;28;20044;-74
2023/05/12 00:22:44;;;;;;;5.20;1.58;;;;;;;;;;5065112;28;20051;-75
2023/05/12 00:25:15;;;;;;;8.32;2.10;;;;;;;;;;5065078;28;20412;-76
2023/05/12 00:27:45;;;;;;;8.80;1.80;;;;;;;;;;5065452;28;20047;-76
2023/05/12 00:30:19;;;;;;;7.50;1.98;;;;;;;;;;5062991;28;20052;-76
2023/05/12 00:32:52;;;;;;;7.72;1.90;;;;;;;;;;5064052;28;20056;-77
2023/05/12 00:35:25;;;;;;;5.70;1.92;;;;;;;;;;5065897;28;20044;-77
2023/05/12 00:37:56;;;;;;;4.78;2.33;;;;;;;;;;5065350;28;20041;-76
2023/05/12 00:40:29;;;;;;;9.55;2.88;;;;;;;;;;5063840;28;20510;-76
2023/05/12 00:43:03;;;;;;;9.18;2.78;;;;;;;;;;5065016;28;20048;-73
2023/05/12 00:45:37;;;;;;;7.88;2.40;;;;;;;;;;5062240;28;20045;-75
2023/05/12 00:48:08;;;;;;;8.65;2.40;;;;;;;;;;5060357;28;20036;-75
2023/05/12 00:50:39;;;;;;;7.55;2.60;;;;;;;;;;5063885;28;20052;-75
2023/05/12 00:53:12;;;;;;;6.07;2.53;;;;;;;;;;5062038;28;20052;-76
2023/05/12 00:55:43;;;;;;;8.35;2.33;;;;;;;;;;5063206;28;20048;-76
2023/05/12 00:58:14;;;;;;;7.60;2.58;;;;;;;;;;5063935;28;20520;-77
2023/05/12 01:00:45;;;;;;;7.03;2.08;;;;;;;;;;5064376;28;20056;-74
2023/05/12 01:03:18;;;;;;;5.85;2.00;;;;;;;;;;5062998;28;20060;-75
2023/05/12 01:05:52;;;;;;;4.32;2.03;;;;;;;;;;5063844;28;20060;-77
2023/05/12 01:08:24;;;;;;;8.70;2.10;;;;;;;;;;5065536;28;20040;-74
2023/05/12 01:10:57;;;;;;;5.72;2.30;;;;;;;;;;5065325;28;20052;-75
2023/05/12 01:13:28;;;;;;;10.13;2.20;;;;;;;;;;5062873;28;20541;-75
2023/05/12 01:16:01;;;;;;;6.90;2.30;;;;;;;;;;5062757;28;20052;-76
2023/05/12 01:18:35;;;;;;;6.00;1.85;;;;;;;;;;5079964;28;20503;-75
2023/05/12 01:21:09;;;;;;;6.05;2.50;;;;;;;;;;5062712;28;20063;-75
2023/05/12 01:23:48;;;;;;;9.48;2.30;;;;;;;;;;5065058;28;20049;-76
2023/05/12 01:26:19;;;;;;;11.05;2.15;;;;;;;;;;5062879;28;20056;-76
2023/05/12 01:28:51;;;;;;;6.97;2.05;;;;;;;;;;5063433;28;20040;-75
2023/05/12 01:31:24;;;;;;;5.32;2.38;;;;;;;;;;5063444;28;20067;-76
2023/05/12 01:33:56;;;;;;;8.30;1.73;;;;;;;;;;5062966;28;20059;-74
2023/05/12 01:36:27;;;;;;;4.72;2.25;;;;;;;;;;5063550;28;20529;-75
2023/05/12 01:38:58;;;;;;;6.28;1.70;;;;;;;;;;5080315;28;20491;-76
2023/05/12 01:41:31;;;;;;;8.05;1.95;;;;;;;;;;5063005;28;20056;-75
2023/05/12 01:44:01;;;;;;;7.28;2.00;;;;;;;;;;5064818;28;20052;-74
2023/05/12 01:46:32;;;;;;;4.90;1.80;;;;;;;;;;5064737;28;20040;-76
2023/05/12 01:49:03;;;;;;;7.18;1.58;;;;;;;;;;5080222;28;20040;-75
2023/05/12 01:51:36;;;;;;;3.80;1.50;;;;;;;;;;5063304;28;20056;-75
2023/05/12 01:54:07;;;;;;;3.83;1.83;;;;;;;;;;5064816;28;20044;-76
2023/05/12 01:56:39;;;;;;;6.97;2.08;;;;;;;;;;5062925;28;20048;-75
2023/05/12 01:59:10;;;;;;;4.88;1.77;;;;;;;;;;5062626;28;20048;-75
2023/05/12 02:01:41;;;;;;;6.28;1.48;;;;;;;;;;5062055;28;20127;-75
2023/05/12 02:04:16;;;;;;;6.05;1.52;;;;;;;;;;5061720;28;20056;-75
2023/05/12 02:06:48;;;;;;;6.72;1.58;;;;;;;;;;5062567;28;20402;-75
2023/05/12 02:09:21;;;;;;;7.05;2.00;;;;;;;;;;5062426;28;20511;-75
2023/05/12 02:11:57;;;;;;;5.47;1.67;;;;;;;;;;5062440;28;20052;-76
2023/05/12 02:14:28;;;;;;;6.55;1.60;;;;;;;;;;5062999;28;20055;-76
2023/05/12 02:16:59;;;;;;;3.75;1.75;;;;;;;;;;5079453;28;20052;-76
2023/05/12 02:19:29;;;;;;;3.55;1.85;;;;;;;;;;5079702;28;20053;-76
2023/05/12 02:22:01;;;;;;;6.85;1.80;;;;;;;;;;5062977;28;20040;-76
2023/05/12 02:24:32;;;;;;;5.18;2.03;;;;;;;;;;5067964;28;20063;-75
2023/05/12 02:27:03;;;;;;;5.57;1.58;;;;;;;;;;5065596;28;20056;-75
2023/05/12 02:29:35;;;;;;;4.43;1.42;;;;;;;;;;5066320;28;20972;-75
2023/05/12 02:32:07;;;;;;;3.97;1.63;;;;;;;;;;5065262;28;20052;-75
2023/05/12 02:34:38;;;;;;;6.93;1.80;;;;;;;;;;5067578;28;20044;-76
2023/05/12 02:37:09;;;;;;;5.65;2.17;;;;;;;;;;5082574;28;20055;-75
2023/05/12 02:39:41;;;;;;;3.17;1.92;;;;;;;;;;5082741;28;20048;-76
2023/05/12 02:42:13;;;;;;;7.35;2.30;;;;;;;;;;5066415;28;20510;-75
2023/05/12 02:44:44;;;;;;;8.00;1.90;;;;;;;;;;5065965;28;20048;-75
2023/05/12 02:47:14;;;;;;;11.55;2.10;;;;;;;;;;5066828;28;20418;-76
2023/05/12 02:49:44;;;;;;;3.83;1.60;;;;;;;;;;5067460;28;20498;-75
2023/05/12 02:52:15;;;;;;;6.70;2.10;;;;;;;;;;5067350;28;20063;-75
2023/05/12 02:54:46;;;;;;;4.53;1.90;;;;;;;;;;5064812;28;20056;-76
2023/05/12 02:57:17;;;;;;;6.88;2.03;;;;;;;;;;5067371;28;20049;-75
2023/05/12 02:59:47;;;;;;;4.35;2.00;;;;;;;;;;5067817;28;20048;-75
2023/05/12 03:02:17;;;;;;;6.43;2.05;;;;;;;;;;5065026;28;20059;-75
2023/05/12 03:04:49;;;;;;;4.40;1.60;;;;;;;;;;5068289;28;20045;-75
2023/05/12 03:07:21;;;;;;;4.43;1.92;;;;;;;;;;5065744;28;20537;-75
2023/05/12 03:09:54;;;;;;;5.00;2.10;;;;;;;;;;5065202;28;20059;-75
2023/05/12 03:12:24;;;;;;;7.60;1.90;;;;;;;;;;5064893;28;20053;-75
2023/05/12 03:14:55;;;;;;;4.00;1.52;;;;;;;;;;5066894;28;20052;-75
2023/05/12 03:17:27;;;;;;;5.88;2.10;;;;;;;;;;5065993;28;20045;-75
2023/05/12 03:19:57;;;;;;;6.00;1.63;;;;;;;;;;5065826;28;20044;-75
2023/05/12 03:22:28;;;;;;;6.00;2.20;;;;;;;;;;5082402;28;20060;-75
2023/05/12 03:24:59;;;;;;;6.55;2.00;;;;;;;;;;5064123;28;20052;-75
2023/05/12 03:27:34;;;;;;;6.65;2.15;;;;;;;;;;5064226;28;20061;-74
2023/05/12 03:30:06;;;;;;;6.90;2.03;;;;;;;;;;5064695;28;20063;-75
2023/05/12 03:32:40;;;;;;;4.78;2.28;;;;;;;;;;5064348;28;20060;-75
2023/05/12 03:35:12;;;;;;;7.00;3.35;;;;;;;;;;5065316;28;20059;-75
2023/05/12 03:37:42;;;;;;;6.07;2.13;;;;;;;;;;5064506;28;20437;-75
2023/05/12 03:40:17;;;;;;;8.65;2.80;;;;;;;;;;5064765;28;20060;-75
2023/05/12 03:42:48;;;;;;;5.30;2.38;;;;;;;;;;5064974;28;20411;-75
2023/05/12 03:45:20;;;;;;;13.63;3.50;;;;;;;;;;5066437;28;20051;-75
2023/05/12 03:47:51;;;;;;;6.28;2.85;;;;;;;;;;5081748;28;20056;-75
2023/05/12 03:50:22;;;;;;;10.43;2.80;;;;;;;;;;5064031;28;20067;-76
2023/05/12 03:52:54;;;;;;;7.07;3.45;;;;;;;;;;5081554;28;20045;-76
2023/05/12 03:55:26;;;;;;;6.75;2.30;;;;;;;;;;5066605;28;20055;-75
2023/05/12 03:57:57;;;;;;;8.38;2.90;;;;;;;;;;5063639;28;20518;-75
2023/05/12 04:00:27;;;;;;;6.22;3.00;;;;;;;;;;5065825;28;20525;-76
2023/05/12 04:02:58;;;;;;;8.88;2.63;;;;;;;;;;5066565;28;20048;-76
2023/05/12 04:05:31;;;;;;;5.95;3.25;;;;;;;;;;5066098;28;20056;-76
2023/05/12 04:08:02;;;;;;;6.68;3.42;;;;;;;;;;5066295;28;20040;-75
2023/05/12 04:10:39;;;;;;;12.50;3.67;;;;;;;;;;5064085;28;20120;-76
2023/05/12 04:13:09;;;;;;;7.68;3.13;;;;;;;;;;5081394;28;20067;-76
2023/05/12 04:15:41;;;;;;;9.35;2.78;;;;;;;;;;5065449;28;20056;-76
2023/05/12 04:18:13;;;;;;;7.10;3.53;;;;;;;;;;5066035;28;20047;-75
2023/05/12 04:20:44;;;;;;;10.73;2.83;;;;;;;;;;5080206;28;20052;-76
2023/05/12 04:23:14;;;;;;;7.28;3.05;;;;;;;;;;5063423;28;20510;-75
2023/05/12 04:25:45;;;;;;;7.28;2.95;;;;;;;;;;5063934;28;20056;-76
2023/05/12 04:28:17;;;;;;;7.00;2.78;;;;;;;;;;5064402;28;20064;-76
2023/05/12 04:30:48;;;;;;;9.13;3.05;;;;;;;;;;5063701;28;20052;-75
2023/05/12 04:33:21;;;;;;;5.65;2.58;;;;;;;;;;5080680;28;20087;-76
2023/05/12 04:35:57;;;;;;;6.57;2.55;;;;;;;;;;5063844;28;20055;-76
2023/05/12 04:38:29;;;;;;;4.35;1.98;;;;;;;;;;5063457;28;20061;-76
2023/05/12 04:41:00;;;;;;;6.05;2.50;;;;;;;;;;5062870;28;20053;-76
2023/05/12 04:43:31;;;;;;;3.55;2.20;;;;;;;;;;5063875;28;20056;-76
2023/05/12 04:46:06;;;;;;;8.95;3.53;;;;;;;;;;5063792;28;20072;-76
2023/05/12 04:48:40;;;;;;;6.80;3.25;;;;;;;;;;5080193;28;20048;-76
2023/05/12 04:51:13;;;;;;;10.52;4.57;;;;;;;;;;5063291;28;20049;-76
2023/05/12 04:53:44;;;;;;;9.85;5.40;;;;;;;;;;5080349;28;20064;-76
2023/05/12 04:56:15;;;;;;;14.13;5.53;;;;;;;;;;5063214;28;20518;-75
2023/05/12 04:58:47;;;;;;;10.20;4.30;;;;;;;;;;5065203;28;20044;-76
2023/05/12 05:01:18;;;;;;;9.00;4.88;;;;;;;;;;5065409;28;20055;-75
2023/05/12 05:03:49;;;;;;;11.23;5.55;;;;;;;;;;5065153;28;20067;-75
2023/05/12 05:06:20;;;;;;;15.18;5.50;;;;;;;;;;5063704;28;20064;-76
2023/05/12 05:08:52;;;;;;;12.50;5.35;;;;;;;;;;5065146;28;20053;-76
2023/05/12 05:11:22;;;;;;;13.73;6.20;;;;;;;;;;5047529;28;20068;-76
2023/05/12 05:13:53;;;;;;;13.10;6.55;;;;;;;;;;5065000;28;20433;-76
2023/05/12 05:16:24;;;;;;;7.93;4.97;;;;;;;;;;5063542;28;20052;-76
2023/05/12 05:18:56;;;;;;;13.60;6.20;;;;;;;;;;5062706;28;20052;-77
2023/05/12 05:21:26;;;;;;;15.35;5.50;;;;;;;;;;5064522;28;20059;-76
2023/05/12 05:23:57;;;;;;;12.98;6.68;;;;;;;;;;5080106;28;20059;-75
2023/05/12 05:26:28;;;;;;;14.00;5.43;;;;;;;;;;5062541;28;20060;-75
2023/05/12 05:29:01;;;;;;;14.90;5.82;;;;;;;;;;5062991;28;20044;-75
2023/05/12 05:31:31;;;;;;;10.35;5.53;;;;;;;;;;5063531;28;20053;-76
2023/05/12 05:34:02;;;;;;;10.00;5.63;;;;;;;;;;5062490;28;20053;-76
2023/05/12 05:36:35;;;;;;;15.50;6.43;;;;;;;;;;5063668;28;20045;-76
2023/05/12 05:39:09;;;;;;;9.57;6.22;;;;;;;;;;5063077;28;20052;-76
2023/05/12 05:41:39;;;;;;;15.23;5.72;;;;;;;;;;5064734;28;20052;-76
2023/05/12 05:44:09;;;;;;;10.15;6.22;;;;;;;;;;5079982;28;20048;-76
2023/05/12 05:46:40;;;;;;;10.88;5.78;;;;;;;;;;5062909;28;20058;-76
2023/05/12 05:49:10;;;;;;;10.55;6.25;;;;;;;;;;5064425;28;20055;-76
2023/05/12 05:51:42;;;;;;;11.13;6.63;;;;;;;;;;5047669;28;20061;-75
2023/05/12 05:54:15;;;;;;;11.82;6.07;;;;;;;;;;5063636;28;20059;-76
2023/05/12 05:56:45;;;;;;;15.23;5.35;;;;;;;;;;5079554;28;20514;-76
2023/05/12 05:59:17;;;;;;;13.10;5.97;;;;;;;;;;5066394;28;20537;-76
2023/05/12 06:01:48;;;;;;;12.35;6.47;;;;;;;;;;5066285;28;20056;-76
2023/05/12 06:04:19;;;;;;;13.00;5.78;;;;;;;;;;5068140;28;20394;-76
2023/05/12 06:06:49;;;;;;;14.63;5.90;;;;;;;;;;5066513;28;20064;-75
2023/05/12 06:09:21;;;;;;;11.90;6.07;;;;;;;;;;5068293;28;20059;-75
2023/05/12 06:11:51;;;;;;;12.48;5.25;;;;;;;;;;5067888;28;20048;-75
2023/05/12 06:14:22;;;;;;;15.02;6.82;;;;;;;;;;5065986;28;20056;-76
2023/05/12 06:16:55;;;;;;;11.18;5.97;;;;;;;;;;5067741;28;20059;-76
2023/05/12 06:19:27;;;;;;;10.38;5.93;;;;;;;;;;5068478;28;20052;-75
2023/05/12 06:21:57;;;;;;;11.77;5.00;;;;;;;;;;5067975;28;20052;-75
2023/05/12 06:24:28;;;;;;;9.15;4.53;;;;;;;;;;5068218;28;20051;-75
2023/05/12 06:26:58;;;;;;;11.75;4.97;;;;;;;;;;5083048;28;20060;-75
2023/05/12 06:29:29;;;;;;;9.82;4.18;;;;;;;;;;5068194;28;20888;-76
2023/05/12 06:32:00;;;;;;;11.57;5.35;;;;;;;;;;5065313;28;20045;-75
2023/05/12 06:34:32;;;;;;;9.93;5.82;;;;;;;;;;5068416;28;20212;-76
2023/05/12 06:37:02;;;;;;;9.82;4.55;;;;;;;;;;5067487;28;20509;-75
2023/05/12 06:39:32;;;;;;;;;;;;;;;;;;5083323;28;20052;-75
2023/05/12 06:42:02;;;;;;;14.65;3.72;;;;;;;;;;5068163;28;19931;-75
2023/05/12 06:44:44;;;;;;;8.75;4.10;;;;;;;;;;5065677;28;20048;-76
2023/05/12 06:47:16;;;;;;;8.65;3.42;;;;;;;;;;5067592;28;20045;-75
2023/05/12 06:49:48;;;;;;;10.23;4.30;;;;;;;;;;5067144;28;20048;-75
2023/05/12 06:52:19;;;;;;;10.35;4.90;;;;;;;;;;5067642;28;20045;-75
2023/05/12 06:54:51;;;;;;;9.45;5.05;;;;;;;;;;5067569;28;20414;-76
2023/05/12 06:57:22;;;;;;;9.00;5.40;;;;;;;;;;5067327;28;20052;-76
2023/05/12 06:59:53;;;;;;;8.15;5.13;;;;;;;;;;5067688;28;20490;-76
2023/05/12 07:02:23;;;;;;;16.88;4.93;;;;;;;;;;5066769;28;20052;-76
2023/05/12 07:04:54;;;;;;;12.40;5.95;;;;;;;;;;5067124;28;20044;-76
2023/05/12 07:07:25;;;;;;;10.02;5.20;;;;;;;;;;5067012;28;20036;-76
2023/05/12 07:09:56;;;;;;;9.60;5.05;;;;;;;;;;5066390;28;20048;-76
2023/05/12 07:12:27;;;;;;;7.28;3.97;;;;;;;;;;5066953;28;20036;-76
2023/05/12 07:14:58;;;;;;;6.55;4.63;;;;;;;;;;5066908;28;20048;-76
2023/05/12 07:17:29;;;;;;;12.98;5.43;;;;;;;;;;5067135;28;20056;-75
2023/05/12 07:20:00;;;;;;;7.78;5.18;;;;;;;;;;5066664;28;20044;-75
2023/05/12 07:22:31;;;;;;;8.40;4.10;;;;;;;;;;5066441;28;20791;-76
2023/05/12 07:25:02;;;;;;;8.57;4.38;;;;;;;;;;5066430;28;20052;-75
2023/05/12 07:27:33;;;;;;;8.48;4.13;;;;;;;;;;5066798;28;20044;-75
2023/05/12 07:30:24;;;;;;;7.43;4.25;;;;;;;;;;5066297;28;20048;-75
2023/05/12 07:32:54;;;;;;;6.13;3.45;;;;;;;;;;5066349;28;20059;-76
2023/05/12 07:35:25;;;;;;;7.07;4.25;;;;;;;;;;5066850;28;20036;-76
2023/05/12 07:37:57;;;;;;;8.02;4.03;;;;;;;;;;5066337;28;20523;-76
2023/05/12 07:40:34;;;;;;;10.45;5.30;;;;;;;;;;5066518;28;20041;-76
2023/05/12 07:43:04;;;;;;;12.32;5.32;;;;;;;;;;5066394;28;20049;-76
2023/05/12 07:45:36;;;;;;;12.95;5.53;;;;;;;;;;5066336;28;20495;-76
2023/05/12 07:48:08;;;;;;;7.43;4.60;;;;;;;;;;5065995;28;20053;-76
2023/05/12 07:50:39;;;;;;;8.93;5.05;;;;;;;;;;5065797;28;20044;-76
2023/05/12 07:53:09;;;;;;;7.13;4.43;;;;;;;;;;5066635;28;20048;-75
2023/05/12 07:55:42;;;;;;;8.25;5.15;;;;;;;;;;5065885;28;20052;-76
2023/05/12 07:58:15;;;;;;;6.50;4.97;;;;;;;;;;5065714;28;20055;-76
2023/05/12 08:00:46;;;;;;;8.30;4.70;;;;;;;;;;5065963;28;20071;-76
2023/05/12 08:03:17;;;;;;;12.02;5.00;;;;;;;;;;5066021;28;20537;-75
2023/05/12 08:05:47;;;;;;;9.40;4.55;;;;;;;;;;5065848;28;20045;-75
2023/05/12 08:08:18;;;;;;;9.57;4.57;;;;;;;;;;5065465;28;20040;-76
2023/05/12 08:10:51;;;;;;;7.47;4.05;;;;;;;;;;5065918;28;20494;-76
2023/05/12 08:13:22;;;;;;;11.05;4.10;;;;;;;;;;5065523;28;20083;-76
2023/05/12 08:15:52;;;;;;;8.90;4.28;;;;;;;;;;5066001;28;20521;-75
2023/05/12 08:18:25;;;;;;;9.02;4.80;;;;;;;;;;5065711;28;20071;-76
2023/05/12 08:20:56;;;;;;;9.35;4.07;;;;;;;;;;5065097;28;20040;-76
2023/05/12 08:23:26;;;;;;;8.25;4.57;;;;;;;;;;5064737;28;20088;-76
2023/05/12 08:25:58;;;;;;;9.32;4.40;;;;;;;;;;5065773;28;20056;-76
2023/05/12 08:28:28;;;;;;;7.40;4.55;;;;;;;;;;5065654;28;20043;-76
2023/05/12 08:31:01;;;;;;;7.90;4.32;;;;;;;;;;5065577;28;20036;-77
2023/05/12 08:33:36;;;;;;;7.25;4.63;;;;;;;;;;5065384;28;20525;-76
2023/05/12 08:36:07;;;;;;;7.32;4.70;;;;;;;;;;5065377;28;20044;-76
2023/05/12 08:38:38;;;;;;;6.60;3.88;;;;;;;;;;5065796;28;20474;-76
2023/05/12 08:41:22;;;;;;;7.63;4.60;;;;;;;;;;5065600;28;20115;-76
2023/05/12 08:43:54;;;;;;;7.85;3.60;;;;;;;;;;5065590;28;20060;-76
2023/05/12 08:46:25;;;;;;;10.10;4.22;;;;;;;;;;5064919;28;20410;-75
2023/05/12 08:48:58;;;;;;;7.10;4.22;;;;;;;;;;5065605;28;20052;-75
2023/05/12 08:51:31;;;;;;;9.07;4.13;;;;;;;;;;5065221;28;20056;-75
2023/05/12 08:54:04;;;;;;;9.45;5.38;;;;;;;;;;5065748;28;20052;-76
2023/05/12 08:56:37;;;;;;;10.25;4.70;;;;;;;;;;5065121;28;20426;-75
2023/05/12 08:59:13;;;;;;;8.38;3.83;;;;;;;;;;5065231;28;20055;-76
2023/05/12 09:01:46;;;;;;;10.57;4.35;;;;;;;;;;5065372;28;20649;-75
2023/05/12 09:04:20;;;;;;;6.68;4.65;;;;;;;;;;5065179;28;20059;-75
2023/05/12 09:06:51;;;;;;;13.35;4.32;;;;;;;;;;5064141;28;20060;-76
2023/05/12 09:09:27;;;;;;;7.65;4.25;;;;;;;;;;5064984;28;20048;-76
2023/05/12 09:11:58;;;;;;;7.75;4.07;;;;;;;;;;5065093;28;20067;-75
2023/05/12 09:14:33;;;;;;;6.88;3.47;;;;;;;;;;5065130;28;20056;-75
2023/05/12 09:17:05;;;;;;;5.45;3.67;;;;;;;;;;5065221;28;20051;-75
2023/05/12 09:19:36;;;;;;;6.03;4.30;;;;;;;;;;5064857;28;20052;-75
2023/05/12 09:22:08;;;;;;;6.25;3.78;;;;;;;;;;5065175;28;20048;-76
2023/05/12 09:24:40;;;;;;;8.27;4.35;;;;;;;;;;5064785;28;20056;-76
2023/05/12 09:27:11;;;;;;;9.20;4.50;;;;;;;;;;5064379;28;20056;-76
2023/05/12 09:29:49;;;;;;;10.30;3.88;;;;;;;;;;5064547;28;20045;-75
2023/05/12 09:32:35;;;;;;;6.38;3.20;;;;;;;;;;5067391;28;20053;-76
2023/05/12 09:35:11;;;;;;;5.70;3.75;;;;;;;;;;5069038;28;20044;-75
2023/05/12 09:37:41;;;;;;;5.82;3.45;;;;;;;;;;5068750;28;20040;-77
2023/05/12 09:40:12;;;;;;;4.65;3.40;;;;;;;;;;5068665;28;20063;-75
2023/05/12 09:42:42;;;;;;;10.32;3.80;;;;;;;;;;5068421;28;20064;-75
2023/05/12 09:45:15;;;;;;;5.22;3.08;;;;;;;;;;5068966;28;20075;-75
2023/05/12 09:47:46;;;;;;;6.70;3.55;;;;;;;;;;5068700;28;20065;-76
2023/05/12 09:50:18;;;;;;;7.03;3.17;;;;;;;;;;5069153;28;20049;-76
2023/05/12 09:52:50;;;;;;;5.50;3.42;;;;;;;;;;5068331;28;20041;-76
2023/05/12 09:55:23;;;;;;;7.97;3.90;;;;;;;;;;5068975;28;20052;-76
2023/05/12 09:57:54;;;;;;;9.75;4.18;;;;;;;;;;5067330;28;20059;-76
2023/05/12 10:00:25;;;;;;;7.25;3.95;;;;;;;;;;5068937;28;20045;-79
2023/05/12 10:03:16;;;;;;;11.13;4.38;;;;;;;;;;5068831;28;20063;-79
2023/05/12 10:06:07;;;;;;;13.05;4.97;;;;;;;;;;5068135;28;20557;-77
2023/05/12 10:08:47;;;;;;;8.50;4.30;;;;;;;;;;5068876;28;20052;-75
2023/05/12 10:11:20;;;;;;;8.95;3.97;;;;;;;;;;5067859;28;20047;-75
2023/05/12 10:13:51;;;;;;;12.10;5.88;;;;;;;;;;5068406;28;20052;-76
2023/05/12 10:16:22;;;;;;;12.63;4.63;;;;;;;;;;5066848;28;20499;-75
2023/05/12 10:18:54;;;;;;;15.23;5.78;;;;;;;;;;5068489;28;20041;-75
2023/05/12 10:21:26;;;;;;;9.70;5.53;;;;;;;;;;5068569;28;20056;-75
2023/05/12 10:23:56;;;;;;;13.93;5.18;;;;;;;;;;5067966;28;20044;-76
2023/05/12 10:26:28;;;;;;;8.02;4.88;;;;;;;;;;5067327;28;20067;-76
2023/05/12 10:28:59;;;;;;;9.90;4.65;;;;;;;;;;5068045;28;20056;-76
2023/05/12 10:31:34;;;;;;;9.70;5.47;;;;;;;;;;5068077;28;20053;-76
2023/05/12 10:34:05;;;;;;;8.63;4.30;;;;;;;;;;5067366;28;20048;-75
2023/05/12 10:36:49;;;;;;;10.93;5.38;;;;;;;;;;5067672;28;20052;-75
2023/05/12 10:39:19;;;;;;;8.55;5.03;;;;;;;;;;5067806;28;20403;-75
2023/05/12 10:42:01;;;;;;;13.73;6.15;;;;;;;;;;5067507;28;20515;-75
2023/05/12 10:44:31;;;;;;;14.95;5.53;;;;;;;;;;5066990;28;20044;-77
2023/05/12 10:47:01;;;;;;;;;;;;;;;;;;5068560;28;20495;-75
2023/05/12 10:49:39;;;;;;;11.20;5.10;;;;;;;;;;5065303;28;19928;-76
2023/05/12 10:52:12;;;;;;;9.75;4.30;;;;;;;;;;5067511;28;20056;-75
2023/05/12 10:54:43;;;;;;;10.55;4.50;;;;;;;;;;5067585;28;20049;-75
2023/05/12 10:57:16;;;;;;;17.02;5.50;;;;;;;;;;5067539;28;20071;-76
2023/05/12 10:59:57;;;;;;;12.52;5.63;;;;;;;;;;5067153;28;20503;-75
2023/05/12 11:02:29;;;;;;;9.75;5.18;;;;;;;;;;5067241;28;20059;-75
2023/05/12 11:05:09;;;;;;;10.90;5.38;;;;;;;;;;5067572;28;20056;-78
2023/05/12 11:07:48;;;;;;;9.13;5.57;;;;;;;;;;5067294;28;20115;-75
2023/05/12 11:10:20;;;;;;;14.15;6.80;;;;;;;;;;5067157;28;20059;-74
2023/05/12 11:12:53;;;;;;;12.88;4.10;;;;;;;;;;5067032;28;20431;-75
2023/05/12 11:15:24;;;;;;;9.15;4.22;;;;;;;;;;5065407;28;20052;-76
2023/05/12 11:17:55;;;;;;;8.02;3.55;;;;;;;;;;5067030;28;20675;-75
2023/05/12 11:20:26;;;;;;;8.35;4.07;;;;;;;;;;5067149;28;20071;-74
2023/05/12 11:22:59;;;;;;;4.57;3.08;;;;;;;;;;5066180;28;20068;-75
2023/05/12 11:25:29;;;;;;;10.02;6.13;;;;;;;;;;5065349;28;20061;-75
2023/05/12 11:28:01;;;;;;;9.93;4.13;;;;;;;;;;5067367;28;20051;-75
2023/05/12 11:30:31;;;;;;;12.48;4.20;;;;;;;;;;5064206;28;20052;-76
2023/05/12 11:33:02;;;;;;;6.43;3.60;;;;;;;;;;5064397;28;20093;-75
2023/05/12 11:35:32;;;;;;;12.82;4.43;;;;;;;;;;5062944;28;20459;-75
2023/05/12 11:38:03;;;;;;;5.53;3.70;;;;;;;;;;5064592;28;20044;-79
2023/05/12 11:40:40;;;;;;;9.50;4.15;;;;;;;;;;5065074;28;20044;-75
2023/05/12 11:43:10;;;;;;;7.78;4.30;;;;;;;;;;5062247;28;20049;-76
2023/05/12 11:45:41;;;;;;;8.43;3.83;;;;;;;;;;5064220;28;20044;-75
2023/05/12 11:48:15;;;;;;;12.48;4.63;;;;;;;;;;5064735;28;20048;-74
2023/05/12 11:50:47;;;;;;;8.48;3.97;;;;;;;;;;5065558;28;20071;-75
2023/05/12 11:53:18;;;;;;;8.70;3.92;;;;;;;;;;5066130;28;20048;-76
2023/05/12 11:55:54;;;;;;;11.07;3.55;;;;;;;;;;5065267;28;20055;-76
2023/05/12 11:58:29;;;;;;;10.00;3.95;;;;;;;;;;5066472;28;20052;-74
2023/05/12 12:01:10;;;;;;;8.40;3.70;;;;;;;;;;5066039;28;20415;-73
2023/05/12 12:03:48;;;;;;;9.85;3.90;;;;;;;;;;5065700;28;20059;-76
2023/05/12 12:06:20;;;;;;;9.70;3.90;;;;;;;;;;5065727;28;20411;-76
2023/05/12 12:08:55;;;;;;;6.97;4.00;;;;;;;;;;5066396;28;20055;-75
2023/05/12 12:11:27;;;;;;;7.28;3.45;;;;;;;;;;5066367;28;20040;-74
2023/05/12 12:13:57;;;;;;;8.15;3.78;;;;;;;;;;5066395;28;20044;-75
2023/05/12 12:16:31;;;;;;;10.30;4.63;;;;;;;;;;5065422;28;20048;-75
2023/05/12 12:19:02;;;;;;;7.80;3.83;;;;;;;;;;5063818;28;20544;-74
2023/05/12 12:21:34;;;;;;;8.27;4.90;;;;;;;;;;5065931;28;20063;-74
2023/05/12 12:24:05;;;;;;;14.50;7.70;;;;;;;;;;5063666;28;20099;-73
2023/05/12 12:26:37;;;;;;;16.90;8.25;;;;;;;;;;5065768;28;20060;-74
2023/05/12 12:29:09;;;;;;;13.20;7.80;;;;;;;;;;5064239;28;20056;-75
2023/05/12 12:31:40;;;;;;;13.48;7.90;;;;;;;;;;5065506;28;20051;-74
2023/05/12 12:34:10;;;;;;;17.40;6.88;;;;;;;;;;5065853;28;20522;-75
2023/05/12 12:36:40;;;;;;;13.05;5.63;;;;;;;;;;5065333;28;20044;-75
2023/05/12 12:39:10;;;;;;;13.50;7.00;;;;;;;;;;5065348;28;20094;-75
2023/05/12 12:41:41;;;;;;;11.60;6.20;;;;;;;;;;5065400;28;20055;-76
2023/05/12 12:44:13;;;;;;;15.80;7.28;;;;;;;;;;5065780;28;20511;-75
2023/05/12 12:46:43;;;;;;;12.55;5.82;;;;;;;;;;5065136;28;20037;-73
2023/05/12 12:49:13;;;;;;;11.45;4.68;;;;;;;;;;5065096;28;20491;-74
2023/05/12 12:51:43;;;;;;;14.48;6.15;;;;;;;;;;5064065;28;20063;-74
2023/05/12 12:54:15;;;;;;;14.18;4.63;;;;;;;;;;5064776;28;20056;-74
2023/05/12 12:56:47;;;;;;;15.88;4.88;;;;;;;;;;5065838;28;20854;-73
2023/05/12 12:59:18;;;;;;;12.02;4.80;;;;;;;;;;5065138;28;20388;-75
2023/05/12 13:01:47;;;;;;;13.27;4.07;;;;;;;;;;5065280;28;20396;-78
2023/05/12 13:04:21;;;;;;;8.40;3.60;;;;;;;;;;5065113;28;20044;-75
2023/05/12 13:06:52;;;;;;;10.50;4.63;;;;;;;;;;5064922;28;20059;-75
2023/05/12 13:09:24;;;;;;;12.82;3.92;;;;;;;;;;5065039;28;20072;-75
2023/05/12 13:11:54;;;;;;;17.15;5.95;;;;;;;;;;5065449;28;20413;-75
2023/05/12 13:14:25;;;;;;;11.65;4.78;;;;;;;;;;5064963;28;20056;-75
2023/05/12 13:16:55;;;;;;;11.73;5.03;;;;;;;;;;5065397;28;20083;-75
2023/05/12 13:19:26;;;;;;;12.07;4.63;;;;;;;;;;5065055;28;20403;-74
2023/05/12 13:21:56;;;;;;;11.13;4.47;;;;;;;;;;5065034;28;20036;-74
2023/05/12 13:24:26;;;;;;;11.75;4.65;;;;;;;;;;5065079;28;21136;-75
2023/05/12 13:26:57;;;;;;;11.93;4.60;;;;;;;;;;5064793;28;20510;-74
2023/05/12 13:29:34;;;;;;;11.20;4.50;;;;;;;;;;5064620;28;20055;-75
2023/05/12 13:32:04;;;;;;;12.38;4.78;;;;;;;;;;5065695;28;20367;-75
2023/05/12 13:34:34;;;;;;;10.32;4.55;;;;;;;;;;5065012;28;20041;-76
2023/05/12 13:37:05;;;;;;;8.65;4.55;;;;;;;;;;5064787;28;20086;-74
2023/05/12 13:39:36;;;;;;;9.73;4.68;;;;;;;;;;5063685;28;20067;-76
2023/05/12 13:42:06;;;;;;;9.02;4.15;;;;;;;;;;5064965;28;20513;-76
2023/05/12 13:44:38;;;;;;;10.20;4.20;;;;;;;;;;5064428;28;20406;-76
2023/05/12 13:47:08;;;;;;;18.60;4.70;;;;;;;;;;5064488;28;20052;-75
2023/05/12 13:49:38;;;;;;;8.52;3.58;;;;;;;;;;5065294;28;20056;-77
2023/05/12 13:52:11;;;;;;;10.25;4.03;;;;;;;;;;5064395;28;20067;-76
2023/05/12 13:54:41;;;;;;;15.73;4.30;;;;;;;;;;5064144;28;20055;-76
2023/05/12 13:57:11;;;;;;;11.20;4.05;;;;;;;;;;5064608;28;20515;-76
2023/05/12 13:59:41;;;;;;;11.77;4.00;;;;;;;;;;5064611;28;20071;-76
2023/05/12 14:02:14;;;;;;;16.27;4.35;;;;;;;;;;5064845;28;20045;-74
2023/05/12 14:04:44;;;;;;;12.35;4.13;;;;;;;;;;5063750;28;20044;-76
2023/05/12 14:07:21;;;;;;;15.77;8.13;;;;;;;;;;5063532;28;20052;-75
2023/05/12 14:09:51;;;;;;;12.25;4.13;;;;;;;;;;5064392;28;20415;-77
2023/05/12 14:12:21;;;;;;;15.80;5.22;;;;;;;;;;5064552;28;20142;-76
2023/05/12 14:14:51;;;;;;;14.43;4.63;;;;;;;;;;5064404;28;20056;-77
2023/05/12 14:17:27;;;;;;;9.88;4.25;;;;;;;;;;5064233;28;20593;-77
2023/05/12 14:19:57;;;;;;;8.93;3.58;;;;;;;;;;5067051;28;20048;-76
2023/05/12 14:22:26;;;;;;;9.63;4.40;;;;;;;;;;5068125;28;20056;-76
2023/05/12 14:24:57;;;;;;;8.40;3.90;;;;;;;;;;5067871;28;20513;-75
2023/05/12 14:27:27;;;;;;;9.60;3.63;;;;;;;;;;5067848;28;20415;-77
2023/05/12 14:29:58;;;;;;;9.80;4.10;;;;;;;;;;5067843;28;20044;-76
2023/05/12 14:32:28;;;;;;;11.88;4.22;;;;;;;;;;5067820;28;20475;-76
2023/05/12 14:35:00;;;;;;;8.80;4.25;;;;;;;;;;5067965;28;20048;-76
2023/05/12 14:37:31;;;;;;;10.02;4.10;;;;;;;;;;5068008;28;20418;-76
2023/05/12 14:40:03;;;;;;;10.18;3.80;;;;;;;;;;5067569;28;20511;-76
2023/05/12 14:42:33;;;;;;;9.63;3.70;;;;;;;;;;5067449;28;20053;-76
2023/05/12 14:45:05;;;;;;;9.90;3.33;;;;;;;;;;5067585;28;20482;-76
2023/05/12 14:47:36;;;;;;;5.95;3.10;;;;;;;;;;5067357;28;20044;-75
2023/05/12 14:50:07;;;;;;;5.45;2.47;;;;;;;;;;5067789;28;20047;-76
2023/05/12 14:52:38;;;;;;;7.20;3.10;;;;;;;;;;5067920;28;20040;-75
2023/05/12 14:55:13;;;;;;;8.10;2.85;;;;;;;;;;5067544;28;20055;-76
2023/05/12 14:57:46;;;;;;;10.90;4.72;;;;;;;;;;5067238;28;20048;-75
2023/05/12 15:00:18;;;;;;;7.60;3.10;;;;;;;;;;5066635;28;20044;-79
2023/05/12 15:02:51;;;;;;;10.65;3.20;;;;;;;;;;5067060;28;20051;-76
2023/05/12 15:05:21;;;;;;;6.85;3.30;;;;;;;;;;5067173;28;20499;-76
2023/05/12 15:08:11;;;;;;;;;;;;;;;;;;5065821;28;20057;-74